Time;durP1;ratioP1;P1;durP2;ratioP2;P2;SDS_P1;SDS_P2;PMS_P1;PMS_P2;Temp;Humidity;BMP_temperature;BMP_pressure;BME280_temperature;BME280_humidity;BME280_pressure;Samples;Min_cycle;Max_cycle;Signal;HPM_P1;HPM_P2
2023/01/24 00:00:06;;;;;;;18.70;10.63;;;;;;;1.32;100.00;103696.19;5032029;28;20045;-89
2023/01/24 00:02:31;;;;;;;17.33;9.55;;;;;;;1.42;100.00;103717.41;5022561;28;20091;-89
2023/01/24 00:04:57;;;;;;;22.33;12.07;;;;;;;1.38;100.00;103708.03;5012362;28;20455;-89
2023/01/24 00:07:22;;;;;;;21.98;12.00;;;;;;;1.35;100.00;103706.50;5013775;28;20036;-89
2023/01/24 00:09:48;;;;;;;22.40;11.47;;;;;;;1.41;100.00;103723.66;5012735;28;20113;-89
2023/01/24 00:12:13;;;;;;;18.33;10.70;;;;;;;1.42;100.00;103720.88;5013755;28;20030;-89
2023/01/24 00:14:38;;;;;;;22.13;10.90;;;;;;;1.42;100.00;103717.41;5013438;28;20505;-89
2023/01/24 00:17:04;;;;;;;19.70;11.13;;;;;;;1.45;100.00;103720.63;5012746;28;20034;-89
2023/01/24 00:19:29;;;;;;;21.47;11.87;;;;;;;1.39;100.00;103718.47;5012480;28;20095;-89
2023/01/24 00:21:54;;;;;;;20.93;11.53;;;;;;;1.37;100.00;103717.75;5012464;28;20367;-89
2023/01/24 00:24:20;;;;;;;19.47;10.50;;;;;;;1.35;100.00;103717.06;5013103;28;20084;-89
2023/01/24 00:26:45;;;;;;;21.67;12.30;;;;;;;1.38;100.00;103724.72;5013580;28;20116;-89
2023/01/24 00:29:10;;;;;;;19.20;10.53;;;;;;;1.38;100.00;103708.03;5013212;28;20026;-89
2023/01/24 00:31:35;;;;;;;23.33;11.00;;;;;;;1.32;100.00;103699.66;5012431;28;20544;-89
2023/01/24 00:34:01;;;;;;;21.43;12.13;;;;;;;1.39;100.00;103722.94;5011859;28;20289;-89
2023/01/24 00:36:26;;;;;;;23.23;11.87;;;;;;;1.38;100.00;103702.75;5012817;28;20116;-89
2023/01/24 00:49:51;;;;;;;22.47;10.87;;;;;;;1.30;100.00;103688.34;5030197;28;20049;-89
2023/01/24 00:52:16;;;;;;;21.35;12.13;;;;;;;1.35;100.00;103694.13;5030346;28;20026;-89
2023/01/24 00:54:42;;;;;;;20.73;11.13;;;;;;;1.40;100.00;103701.66;5032616;28;20029;-89
2023/01/24 00:57:07;;;;;;;22.23;11.73;;;;;;;1.30;100.00;103691.00;5031825;28;20048;-88
2023/01/24 00:59:32;;;;;;;22.80;11.13;;;;;;;1.26;100.00;103692.25;5030978;28;20101;-89
2023/01/24 01:01:58;;;;;;;21.27;11.30;;;;;;;1.32;100.00;103696.19;5031516;28;20031;-88
2023/01/24 01:04:23;;;;;;;20.00;10.33;;;;;;;1.32;100.00;103696.19;5032947;28;20024;-88
2023/01/24 01:06:48;;;;;;;20.25;11.52;;;;;;;1.10;100.00;103652.16;5031966;28;20500;-89
2023/01/24 01:09:14;;;;;;;21.47;10.83;;;;;;;1.27;100.00;103686.00;5032713;28;20029;-89
2023/01/24 01:11:41;;;;;;;23.40;11.63;;;;;;;1.25;100.00;103689.72;5035351;28;20060;-89
2023/01/24 01:14:07;;;;;;;22.13;11.02;;;;;;;1.18;100.00;103670.88;5043053;28;20040;-88
2023/01/24 01:16:37;;;;;;;15.40;8.45;;;;;;;1.35;100.00;103683.53;5058061;28;20045;-89
2023/01/24 01:19:03;;;;;;;18.40;10.30;;;;;;;1.25;100.00;103687.91;5053212;28;20017;-88
2023/01/24 01:21:28;;;;;;;17.92;10.15;;;;;;;1.22;100.00;103680.25;5054161;28;20034;-89
2023/01/24 01:23:54;;;;;;;18.73;9.60;;;;;;;1.22;100.00;103682.88;5053892;28;20046;-89
2023/01/24 01:26:21;;;;;;;18.87;9.70;;;;;;;1.21;100.00;103686.47;5034476;28;20116;-89
2023/01/24 01:28:47;;;;;;;18.33;10.15;;;;;;;1.11;100.00;103669.69;5036546;28;20010;-89
2023/01/24 01:31:12;;;;;;;19.95;10.40;;;;;;;1.18;100.00;103684.94;5054584;28;20044;-89
2023/01/24 01:33:37;;;;;;;19.67;10.47;;;;;;;1.21;100.00;103692.59;5034057;28;20590;-89
2023/01/24 01:36:04;;;;;;;19.27;9.93;;;;;;;1.15;100.00;103679.91;5031589;28;20087;-88
2023/01/24 01:38:29;;;;;;;18.10;9.93;;;;;;;1.21;100.00;103692.59;5031855;28;20017;-89
2023/01/24 01:40:56;;;;;;;19.83;10.13;;;;;;;1.29;100.00;103691.97;5031326;28;20028;-89
2023/01/24 01:43:23;;;;;;;19.92;10.55;;;;;;;1.19;100.00;103680.47;5041261;28;20113;-89
2023/01/24 01:45:59;;;;;;;19.00;10.15;;;;;;;1.22;100.00;103688.16;5014061;28;20560;-90
2023/01/24 01:48:38;;;;;;;18.17;9.93;;;;;;;1.28;100.00;103689.47;5031669;28;20061;-89
2023/01/24 01:51:12;;;;;;;18.33;9.60;;;;;;;1.26;100.00;103691.38;5031303;28;20283;-89
2023/01/24 01:53:46;;;;;;;20.20;10.95;;;;;;;1.27;100.00;103685.13;5032066;28;20083;-89
2023/01/24 01:56:43;;;;;;;21.17;11.07;;;;;;;1.17;100.00;103674.47;5031082;28;20056;-89
2023/01/24 01:59:15;;;;;;;21.85;10.48;;;;;;;1.31;100.00;103689.22;5030156;28;20033;-89
2023/01/24 02:01:42;;;;;;;19.83;10.00;;;;;;;1.20;100.00;103668.94;5030882;28;20025;-89
2023/01/24 02:04:12;;;;;;;20.70;11.37;;;;;;;1.32;100.00;103678.50;5031629;28;20104;-89
2023/01/24 02:07:11;;;;;;;21.10;11.33;;;;;;;1.27;100.00;103675.44;5031521;28;20295;-89
2023/01/24 02:09:45;;;;;;;18.13;9.65;;;;;;;1.29;100.00;103680.56;5029828;28;20045;-88
2023/01/24 02:12:16;;;;;;;22.55;11.55;;;;;;;1.28;100.00;103689.47;5014393;28;20147;-88
2023/01/24 02:17:31;;;;;;;23.40;11.38;;;;;;;1.26;100.00;103671.09;5030173;28;20171;-89
2023/01/24 02:20:09;;;;;;;21.03;11.23;;;;;;;1.37;100.00;103680.75;5030760;28;20033;-89
2023/01/24 02:22:48;;;;;;;22.13;10.80;;;;;;;1.29;100.00;103667.38;5031208;28;20283;-86
2023/01/24 02:25:23;;;;;;;23.35;11.65;;;;;;;1.32;100.00;103675.03;5030913;28;20428;-87
2023/01/24 02:27:48;;;;;;;24.15;12.15;;;;;;;1.23;100.00;103658.13;5030958;28;20394;-87
2023/01/24 02:30:14;;;;;;;25.33;12.77;;;;;;;1.20;100.00;103663.66;5028028;28;20026;-89
2023/01/24 02:32:39;;;;;;;24.00;12.97;;;;;;;1.25;100.00;103685.28;5029941;28;20116;-88
2023/01/24 02:35:05;;;;;;;22.70;11.63;;;;;;;1.21;100.00;103668.81;5013329;28;20523;-90
2023/01/24 02:37:35;;;;;;;21.53;12.00;;;;;;;1.26;100.00;103675.53;5030636;28;20492;-88
2023/01/24 02:40:09;;;;;;;21.98;11.20;;;;;;;1.23;100.00;103676.63;5030704;28;20049;-87
2023/01/24 02:42:39;;;;;;;21.80;11.43;;;;;;;1.27;100.00;103686.00;5029407;28;20721;-87
2023/01/24 02:45:13;;;;;;;22.77;12.23;;;;;;;1.27;100.00;103680.72;5029503;28;20041;-88
2023/01/24 02:47:45;;;;;;;22.50;11.80;;;;;;;1.25;100.00;103679.13;5028126;28;20034;-87
2023/01/24 02:50:10;;;;;;;23.67;12.03;;;;;;;1.23;100.00;103678.41;5029282;28;20032;-87
2023/01/24 02:55:20;;;;;;;20.23;10.75;;;;;;;1.20;100.00;103679.53;5045385;28;20041;-87
2023/01/24 03:00:30;;;;;;;20.23;10.68;;;;;;;1.16;100.00;103675.44;5041569;28;20072;-87
2023/01/24 03:02:55;;;;;;;23.80;12.70;;;;;;;1.19;100.00;103683.94;5042751;28;20041;-88
2023/01/24 03:05:21;;;;;;;20.93;11.13;;;;;;;1.13;100.00;103671.25;5030331;28;20021;-88
2023/01/24 03:07:48;;;;;;;24.35;12.73;;;;;;;1.16;100.00;103675.44;5030270;28;20453;-88
2023/01/24 03:10:15;;;;;;;24.30;11.95;;;;;;;1.17;100.00;103671.84;5013244;28;20038;-88
2023/01/24 03:34:50;;;;;;;24.30;10.70;;;;;;;1.10;100.00;103674.16;5032681;28;20303;-88
2023/01/24 03:39:53;;;;;;;21.77;11.13;;;;;;;1.08;100.00;103664.69;5032374;28;20048;-88
2023/01/24 03:40:06;;;;;;;21.42;11.68;;;;;;;1.04;100.00;103664.91;5032063;28;20091;-88
2023/01/24 03:42:31;;;;;;;26.42;13.38;;;;;;;1.03;100.00;103668.53;5034380;28;20037;-88
2023/01/24 03:44:57;;;;;;;24.30;12.30;;;;;;;1.00;100.00;103660.03;5014721;28;20392;-88
2023/01/24 03:47:22;;;;;;;22.80;11.70;;;;;;;1.02;100.00;103666.84;5032391;28;20040;-87
2023/01/24 03:52:32;;;;;;;20.63;11.30;;;;;;;1.02;100.00;103660.72;5034212;28;20411;-89
2023/01/24 03:55:00;;;;;;;25.80;13.27;;;;;;;0.99;100.00;103668.91;5035475;28;20025;-90
2023/01/24 03:57:26;;;;;;;23.33;12.52;;;;;;;0.92;100.00;103657.13;5036537;28;20030;-87
2023/01/24 03:59:51;;;;;;;22.73;11.93;;;;;;;0.96;100.00;103646.19;5034560;28;20029;-88
2023/01/24 04:02:20;;;;;;;20.17;9.85;;;;;;;1.01;100.00;103665.16;5036406;28;20029;-88
2023/01/24 04:07:30;;;;;;;20.63;10.57;;;;;;;0.97;100.00;103658.44;5033599;28;20079;-89
2023/01/24 04:09:55;;;;;;;22.40;11.05;;;;;;;0.96;100.00;103661.22;5017164;28;20029;-89
2023/01/24 04:12:20;;;;;;;21.17;11.70;;;;;;;0.93;100.00;103658.81;5016529;28;20073;-89
2023/01/24 04:14:46;;;;;;;23.43;12.27;;;;;;;0.95;100.00;103668.28;5034268;28;20120;-88
2023/01/24 04:17:11;;;;;;;21.53;10.97;;;;;;;0.93;100.00;103672.03;5034174;28;20117;-88
2023/01/24 04:19:36;;;;;;;18.47;10.07;;;;;;;0.97;100.00;103668.19;5033334;28;20504;-89
2023/01/24 04:22:03;;;;;;;21.07;10.83;;;;;;;0.98;100.00;103667.22;5033219;28;20714;-88
2023/01/24 04:24:28;;;;;;;23.50;12.70;;;;;;;0.96;100.00;103666.50;5037823;28;20018;-89
2023/01/24 04:26:53;;;;;;;23.73;11.50;;;;;;;0.92;100.00;103662.41;5031164;28;20624;-89
2023/01/24 04:29:20;;;;;;;24.73;11.20;;;;;;;0.91;100.00;103669.53;5033624;28;20039;-89
2023/01/24 04:31:45;;;;;;;21.67;11.70;;;;;;;0.85;100.00;103660.25;5049353;28;20037;-89
2023/01/24 04:34:11;;;;;;;22.00;11.53;;;;;;;0.91;100.00;103664.25;5020660;28;20026;-89
2023/01/24 04:36:36;;;;;;;21.20;11.30;;;;;;;0.85;100.00;103659.44;5013350;28;20064;-88
2023/01/24 04:39:01;;;;;;;22.80;12.27;;;;;;;0.93;100.00;103670.22;5015317;28;20022;-88
2023/01/24 04:41:27;;;;;;;22.60;11.95;;;;;;;0.79;100.00;103650.22;5036147;28;20037;-88
2023/01/24 04:43:52;;;;;;;20.23;10.97;;;;;;;0.92;100.00;103654.50;5035857;28;20033;-87
2023/01/24 04:46:17;;;;;;;22.77;12.20;;;;;;;0.89;100.00;103666.16;5032150;28;20481;-87
2023/01/24 04:48:43;;;;;;;22.47;11.57;;;;;;;0.90;100.00;103665.19;5033016;28;20033;-87
2023/01/24 04:51:09;;;;;;;24.00;11.93;;;;;;;0.87;100.00;103665.44;5032538;28;20061;-88
2023/01/24 04:53:41;;;;;;;23.67;12.52;;;;;;;0.83;100.00;103658.72;5032569;28;20038;-87
2023/01/24 04:56:07;;;;;;;23.35;11.85;;;;;;;0.81;100.00;103663.28;5032490;28;20037;-87
2023/01/24 04:58:33;;;;;;;22.87;11.90;;;;;;;0.67;100.00;103637.97;5031369;28;20033;-89
2023/01/24 05:00:59;;;;;;;24.05;12.75;;;;;;;0.88;100.00;103677.69;5029906;28;20676;-88
2023/01/24 05:03:24;;;;;;;24.23;12.85;;;;;;;0.86;100.00;103669.88;5032288;28;20152;-90
2023/01/24 05:05:51;;;;;;;24.20;12.77;;;;;;;0.88;100.00;103672.41;5032856;28;20056;-86
2023/01/24 05:08:16;;;;;;;22.75;12.50;;;;;;;0.85;100.00;103667.38;5030542;28;20068;-85
2023/01/24 05:10:41;;;;;;;21.90;11.50;;;;;;;0.85;100.00;103665.53;5031821;28;20049;-86
2023/01/24 05:13:07;;;;;;;22.07;11.50;;;;;;;0.86;100.00;103674.31;5030128;28;20435;-87
2023/01/24 05:15:32;;;;;;;20.40;11.63;;;;;;;0.81;100.00;103658.84;5030860;28;20137;-87
2023/01/24 05:17:58;;;;;;;22.30;11.55;;;;;;;0.85;100.00;103676.09;5029948;28;20100;-86
2023/01/24 05:20:23;;;;;;;22.13;11.23;;;;;;;0.86;100.00;103676.97;5031825;28;20037;-87
2023/01/24 05:22:49;;;;;;;22.63;11.83;;;;;;;0.81;100.00;103672.06;5031580;28;20032;-87
2023/01/24 05:25:18;;;;;;;21.75;11.48;;;;;;;0.86;100.00;103682.25;5031571;28;20029;-85
2023/01/24 05:27:43;;;;;;;20.23;11.02;;;;;;;0.85;100.00;103677.91;5031088;28;20124;-86
2023/01/24 05:30:09;;;;;;;20.60;10.50;;;;;;;0.79;100.00;103681.91;5031949;28;20021;-86
2023/01/24 05:32:36;;;;;;;22.63;11.00;;;;;;;0.85;100.00;103683.19;5029962;28;20029;-87
2023/01/24 05:35:02;;;;;;;22.38;11.45;;;;;;;0.83;100.00;103685.94;5026141;28;20033;-88
2023/01/24 05:37:27;;;;;;;20.00;10.53;;;;;;;0.85;100.00;103675.28;5009022;28;20037;-88
2023/01/24 05:39:52;;;;;;;18.90;10.90;;;;;;;0.59;100.00;103643.88;5032891;28;20033;-88
2023/01/24 05:42:19;;;;;;;22.73;11.57;;;;;;;0.79;100.00;103673.13;5031693;28;20486;-88
2023/01/24 05:44:45;;;;;;;22.60;11.43;;;;;;;0.71;100.00;103681.66;5032085;28;20481;-88
2023/01/24 05:47:10;;;;;;;22.30;11.20;;;;;;;0.74;100.00;103684.88;5029666;28;20295;-88
2023/01/24 05:49:35;;;;;;;21.60;11.07;;;;;;;0.79;100.00;103691.59;5029151;28;20037;-88
2023/01/24 05:52:01;;;;;;;22.27;11.20;;;;;;;0.79;100.00;103696.88;5030726;28;20053;-89
2023/01/24 05:54:26;;;;;;;21.53;10.07;;;;;;;0.80;100.00;103693.28;5035552;28;20013;-88
2023/01/24 05:56:52;;;;;;;19.60;10.70;;;;;;;0.74;100.00;103695.44;5044461;28;20030;-88
2023/01/24 05:59:18;;;;;;;20.98;11.75;;;;;;;0.86;100.00;103700.72;5032284;28;20393;-88
2023/01/24 06:01:43;;;;;;;17.10;8.63;;;;;;;0.79;100.00;103705.66;5046195;28;20053;-89
2023/01/24 06:04:08;;;;;;;22.20;11.30;;;;;;;0.74;100.00;103711.28;5045383;28;20481;-89
2023/01/24 06:06:34;;;;;;;19.70;10.73;;;;;;;0.77;100.00;103722.56;5031896;28;20022;-88
2023/01/24 06:08:59;;;;;;;18.33;9.40;;;;;;;0.73;100.00;103714.88;5030386;28;20025;-88
2023/01/24 06:11:27;;;;;;;17.70;10.00;;;;;;;0.82;100.00;103712.47;5032276;28;20064;-88
2023/01/24 06:13:54;;;;;;;19.17;10.25;;;;;;;0.75;100.00;103714.78;5031461;28;20528;-88
2023/01/24 06:16:24;;;;;;;18.67;10.63;;;;;;;0.73;100.00;103714.88;5031010;28;20038;-88
2023/01/24 06:18:51;;;;;;;15.70;8.60;;;;;;;0.83;100.00;103724.72;5028417;28;20116;-89
2023/01/24 06:21:40;;;;;;;20.27;10.52;;;;;;;0.73;100.00;103727.25;5030910;28;20183;-89
2023/01/24 06:24:22;;;;;;;19.63;10.83;;;;;;;0.72;100.00;103715.88;5029196;28;20067;-89
2023/01/24 06:26:50;;;;;;;18.07;9.40;;;;;;;0.68;100.00;103717.06;5030616;28;20288;-89
2023/01/24 06:29:16;;;;;;;22.42;11.35;;;;;;;0.69;100.00;103724.03;5030682;28;20473;-89
2023/01/24 06:32:01;;;;;;;20.50;11.30;;;;;;;0.62;100.00;103712.25;5031847;28;20033;-89
2023/01/24 06:35:05;;;;;;;23.70;11.25;;;;;;;0.73;100.00;103728.06;5021210;28;20140;-88
2023/01/24 06:37:43;;;;;;;15.73;8.57;;;;;;;0.69;100.00;103731.94;5036590;28;20036;-88
2023/01/24 06:40:10;;;;;;;22.13;11.40;;;;;;;0.68;100.00;103726.75;5056027;28;20025;-89
2023/01/24 06:42:36;;;;;;;21.37;10.50;;;;;;;0.60;100.00;103716.81;5054708;28;20283;-89
2023/01/24 06:45:05;;;;;;;16.35;8.63;;;;;;;0.71;100.00;103748.50;5054952;28;20025;-89
2023/01/24 06:47:30;;;;;;;22.17;12.02;;;;;;;0.68;100.00;103737.31;5033847;28;20029;-90
2023/01/24 06:49:55;;;;;;;23.70;11.90;;;;;;;0.61;100.00;103734.31;5012451;28;20025;-91
2023/01/24 06:52:21;;;;;;;23.27;11.20;;;;;;;0.53;100.00;103723.53;5027564;28;20028;-88
2023/01/24 06:54:46;;;;;;;20.17;10.87;;;;;;;0.66;100.00;103728.69;5031275;28;20333;-88
2023/01/24 06:57:12;;;;;;;21.93;10.20;;;;;;;0.69;100.00;103731.09;5030453;28;20033;-88
2023/01/24 06:59:37;;;;;;;18.55;10.02;;;;;;;0.66;100.00;103739.22;5028467;28;20036;-87
2023/01/24 07:02:03;;;;;;;22.40;12.43;;;;;;;0.58;100.00;103732.78;5030108;28;20108;-87
2023/01/24 07:04:28;;;;;;;24.53;12.70;;;;;;;0.64;100.00;103735.91;5029228;28;20515;-87
2023/01/24 07:06:54;;;;;;;23.33;12.17;;;;;;;0.63;100.00;103732.41;5027525;28;20502;-85
2023/01/24 07:09:20;;;;;;;21.63;11.77;;;;;;;0.56;100.00;103731.19;5030121;28;20030;-90
2023/01/24 07:11:49;;;;;;;24.20;12.83;;;;;;;0.55;100.00;103743.56;5030985;28;20094;-90
2023/01/24 07:14:15;;;;;;;27.57;13.20;;;;;;;0.55;100.00;103734.78;5029826;28;20307;-89
2023/01/24 07:16:40;;;;;;;22.33;11.60;;;;;;;0.48;100.00;103738.88;5030359;28;20029;-90
2023/01/24 07:19:07;;;;;;;22.63;11.07;;;;;;;0.54;100.00;103743.69;5031845;28;20044;-91
2023/01/24 07:21:39;;;;;;;20.73;11.05;;;;;;;0.52;100.00;103751.72;5032059;28;20029;-90
2023/01/24 07:24:12;;;;;;;22.50;11.18;;;;;;;0.45;100.00;103756.63;5017066;28;20053;-90
2023/01/24 07:26:37;;;;;;;22.08;11.05;;;;;;;0.64;100.00;103772.84;5038533;28;20036;-90
2023/01/24 07:29:03;;;;;;;19.47;10.33;;;;;;;0.51;100.00;103772.94;5045356;28;20037;-89
2023/01/24 07:31:28;;;;;;;21.00;10.20;;;;;;;0.54;100.00;103772.72;5034770;28;20021;-90
2023/01/24 07:33:53;;;;;;;22.25;11.77;;;;;;;0.47;100.00;103766.22;5034673;28;20097;-90
2023/01/24 07:36:19;;;;;;;21.13;10.80;;;;;;;0.57;100.00;103783.88;5032062;28;20034;-90
2023/01/24 07:38:45;;;;;;;23.10;11.30;;;;;;;0.54;100.00;103783.28;5032828;28;20022;-90
2023/01/24 07:41:11;;;;;;;23.73;11.40;;;;;;;0.52;100.00;103785.19;5010902;28;20034;-90
2023/01/24 07:43:36;;;;;;;19.47;10.40;;;;;;;0.48;100.00;103771.38;5025056;28;20405;-90
2023/01/24 07:46:03;;;;;;;22.53;11.63;;;;;;;0.45;100.00;103774.25;5027835;28;20661;-91
2023/01/24 07:48:28;;;;;;;24.80;11.80;;;;;;;0.48;100.00;103781.91;5036807;28;20036;-91
2023/01/24 07:50:57;;;;;;;23.23;12.20;;;;;;;0.43;100.00;103773.53;5034084;28;20041;-91
2023/01/24 08:03:43;;;;;;;23.50;12.03;;;;;;;0.56;100.00;103794.53;5197649;22;20072;-91
2023/01/24 08:06:08;;;;;;;23.57;11.17;;;;;;;0.52;100.00;103790.47;5033018;28;20291;-91
2023/01/24 08:08:33;;;;;;;26.50;13.60;;;;;;;0.57;100.00;103804.13;5044674;28;20108;-92
2023/01/24 08:10:58;;;;;;;24.10;11.33;;;;;;;0.56;100.00;103787.47;5038685;28;20029;-92
2023/01/24 08:13:24;;;;;;;27.90;13.63;;;;;;;0.49;100.00;103793.34;5038846;28;20030;-91
2023/01/24 08:15:49;;;;;;;25.30;13.57;;;;;;;0.47;100.00;103782.06;5026808;28;20032;-92
2023/01/24 08:18:15;;;;;;;25.92;12.85;;;;;;;0.57;100.00;103809.41;5032135;28;20025;-92
2023/01/24 08:20:40;;;;;;;24.07;12.87;;;;;;;0.53;100.00;103800.88;5036939;28;20025;-91
2023/01/24 08:23:05;;;;;;;23.17;11.03;;;;;;;0.50;100.00;103795.84;5019985;28;20091;-92
2023/01/24 08:25:31;;;;;;;23.43;11.80;;;;;;;0.49;100.00;103786.25;5050179;28;20261;-91
2023/01/24 08:27:57;;;;;;;24.73;12.07;;;;;;;0.55;100.00;103801.63;5033079;28;20037;-91
2023/01/24 08:30:23;;;;;;;22.25;11.38;;;;;;;0.66;100.00;103811.34;5015665;28;20496;-91
2023/01/24 08:32:48;;;;;;;23.70;12.00;;;;;;;0.61;100.00;103805.56;5031179;28;20072;-92
2023/01/24 08:35:14;;;;;;;25.50;11.90;;;;;;;0.36;100.00;103770.53;5031256;28;20452;-89
2023/01/24 08:37:40;;;;;;;21.80;11.52;;;;;;;0.58;100.00;103806.66;5035238;28;20477;-93
2023/01/24 08:40:06;;;;;;;24.53;11.37;;;;;;;0.63;100.00;103811.59;5038100;28;20134;-92
2023/01/24 08:42:31;;;;;;;22.33;11.05;;;;;;;0.63;100.00;103819.50;5030683;28;20117;-91
2023/01/24 08:44:57;;;;;;;24.43;12.47;;;;;;;0.63;100.00;103816.03;5002153;28;20120;-92
2023/01/24 08:47:22;;;;;;;28.63;12.90;;;;;;;0.59;100.00;103818.03;5031738;28;20061;-90
2023/01/24 08:49:48;;;;;;;22.60;10.83;;;;;;;0.69;100.00;103828.75;5029605;28;20030;-91
2023/01/24 08:52:13;;;;;;;25.27;11.73;;;;;;;0.63;100.00;103808.94;5038547;28;20031;-92
2023/01/24 08:54:39;;;;;;;26.60;12.53;;;;;;;0.76;100.00;103816.75;5038763;28;20059;-92
2023/01/24 08:57:07;;;;;;;22.83;11.38;;;;;;;0.62;100.00;103811.72;5054332;28;20404;-91
2023/01/24 08:59:32;;;;;;;24.48;12.38;;;;;;;0.69;100.00;103840.16;5028073;28;20490;-91
2023/01/24 09:01:58;;;;;;;23.37;11.27;;;;;;;0.70;100.00;103836.56;5039369;28;20029;-91
2023/01/24 09:04:26;;;;;;;22.77;11.50;;;;;;;0.78;100.00;103829.84;5052628;28;20037;-92
2023/01/24 09:06:51;;;;;;;24.15;10.70;;;;;;;0.66;100.00;103816.63;5034637;28;20596;-91
2023/01/24 09:09:16;;;;;;;27.05;12.43;;;;;;;0.64;100.00;103818.53;5050938;28;20029;-91
2023/01/24 09:11:42;;;;;;;20.17;10.73;;;;;;;0.72;100.00;103829.38;5035700;28;20026;-88
2023/01/24 09:14:07;;;;;;;24.43;12.90;;;;;;;0.75;100.00;103841.47;5034394;28;20512;-89
2023/01/24 09:16:33;;;;;;;24.23;11.40;;;;;;;0.75;100.00;103828.28;5035772;28;20104;-91
2023/01/24 09:18:59;;;;;;;26.80;13.20;;;;;;;0.78;100.00;103835.97;5048158;28;20033;-92
2023/01/24 09:21:24;;;;;;;23.90;11.60;;;;;;;0.84;100.00;103842.56;5056907;28;20010;-92
2023/01/24 09:23:49;;;;;;;25.35;11.32;;;;;;;0.82;100.00;103842.69;5054270;28;20060;-90
2023/01/24 09:26:15;;;;;;;21.63;11.30;;;;;;;0.81;100.00;103816.41;5045618;28;20038;-92
2023/01/24 09:28:40;;;;;;;22.17;9.67;;;;;;;0.83;100.00;103817.97;5036020;28;20056;-91
2023/01/24 09:31:09;;;;;;;23.73;11.70;;;;;;;0.94;100.00;103832.97;5034165;28;20045;-91
2023/01/24 09:33:34;;;;;;;24.75;11.23;;;;;;;0.97;100.00;103827.44;5034185;28;20053;-90
2023/01/24 09:36:02;;;;;;;24.33;12.50;;;;;;;0.93;100.00;103819.91;5025323;28;20044;-90
2023/01/24 09:38:30;;;;;;;24.77;11.68;;;;;;;1.02;100.00;103833.22;5030618;28;20038;-90
2023/01/24 09:41:05;;;;;;;22.88;11.88;;;;;;;1.21;100.00;103845.00;5032277;28;20033;-92
2023/01/24 09:43:42;;;;;;;19.33;9.52;;;;;;;1.06;100.00;103831.19;5033667;28;20025;-94
2023/01/24 09:46:20;;;;;;;21.47;11.13;;;;;;;1.15;100.00;103843.69;5033533;28;20086;-94
2023/01/24 09:48:49;;;;;;;24.48;10.32;;;;;;;1.13;100.00;103845.59;5033411;28;20087;-92
2023/01/24 09:51:24;;;;;;;22.00;12.10;;;;;;;1.05;100.00;103826.84;5032119;28;20017;-92
2023/01/24 09:54:14;;;;;;;20.45;10.02;;;;;;;1.14;100.00;103842.00;5016120;28;20064;-91
2023/01/24 09:56:43;;;;;;;21.55;10.10;;;;;;;1.24;100.00;103846.53;5032931;28;20370;-92
2023/01/24 09:59:26;;;;;;;20.80;10.13;;;;;;;1.30;100.00;103849.53;5031113;28;20030;-92
2023/01/24 10:01:52;;;;;;;16.87;9.33;;;;;;;1.27;100.00;103849.81;5032774;28;20366;-92
2023/01/24 10:04:29;;;;;;;17.67;8.77;;;;;;;1.25;100.00;103850.88;5032762;28;20045;-92
2023/01/24 10:07:27;;;;;;;18.08;10.05;;;;;;;1.27;100.00;103857.72;5030384;28;20079;-92
2023/01/24 10:10:14;;;;;;;17.65;9.45;;;;;;;1.32;100.00;103860.00;5031919;28;20041;-92
2023/01/24 10:13:15;;;;;;;16.55;9.23;;;;;;;1.36;100.00;103857.00;5031812;28;20469;-92
2023/01/24 10:16:17;;;;;;;17.83;9.30;;;;;;;1.38;100.00;103848.94;5038302;28;20052;-92
2023/01/24 10:19:10;;;;;;;18.52;9.40;;;;;;;1.39;100.00;103847.97;5033922;28;20032;-91
2023/01/24 10:21:50;;;;;;;22.38;9.45;;;;;;;1.47;100.00;103860.56;5025450;28;20676;-90
2023/01/24 10:24:22;;;;;;;23.27;9.43;;;;;;;1.45;100.00;103857.22;5031328;28;20041;-91
2023/01/24 10:26:52;;;;;;;15.07;7.65;;;;;;;1.42;100.00;103853.00;5047002;28;20010;-90
2023/01/24 10:29:31;;;;;;;17.45;9.27;;;;;;;1.28;100.00;103843.53;5043043;28;20038;-90
2023/01/24 10:32:00;;;;;;;15.07;7.43;;;;;;;1.44;100.00;103855.53;5031987;28;20025;-91
2023/01/24 10:34:34;;;;;;;17.83;9.20;;;;;;;1.31;100.00;103843.28;5048527;28;20036;-91
2023/01/24 10:37:23;;;;;;;15.55;8.30;;;;;;;1.47;100.00;103857.91;5039392;28;20022;-91
2023/01/24 10:39:50;;;;;;;17.52;9.25;;;;;;;1.53;100.00;103865.38;5020802;28;20040;-90
2023/01/24 10:42:24;;;;;;;18.33;9.45;;;;;;;1.57;100.00;103858.88;5031507;28;20030;-90
2023/01/24 10:44:51;;;;;;;16.07;9.27;;;;;;;1.55;100.00;103852.88;5031826;28;20030;-90
2023/01/24 10:47:44;;;;;;;17.67;9.30;;;;;;;1.70;100.00;103865.81;5029576;28;20419;-89
2023/01/24 10:50:13;;;;;;;15.57;9.02;;;;;;;1.51;100.00;103847.00;5030788;28;20106;-90
2023/01/24 10:52:39;;;;;;;17.08;9.07;;;;;;;1.54;100.00;103853.84;5031603;28;20025;-91
2023/01/24 10:55:24;;;;;;;18.10;10.00;;;;;;;1.56;100.00;103854.56;5032490;28;20469;-91
2023/01/24 10:57:52;;;;;;;19.27;9.15;;;;;;;1.51;100.00;103840.88;5033903;28;20034;-91
2023/01/24 11:00:35;;;;;;;18.58;9.23;;;;;;;1.63;100.00;103849.63;5034219;28;20043;-91
2023/01/24 11:03:16;;;;;;;17.42;10.23;;;;;;;1.65;100.00;103856.44;5031899;28;20064;-92
2023/01/24 11:05:55;;;;;;;15.82;7.97;;;;;;;1.75;100.00;103851.25;5030001;28;20547;-89
2023/01/24 11:08:42;;;;;;;16.30;8.50;;;;;;;1.51;100.00;103819.72;5030474;28;20116;-89
2023/01/24 11:11:24;;;;;;;16.13;9.27;;;;;;;1.76;100.00;103854.75;5030904;28;20351;-89
2023/01/24 11:13:55;;;;;;;18.33;9.50;;;;;;;1.70;100.00;103845.53;5028863;28;20056;-89
2023/01/24 11:16:26;;;;;;;16.00;9.20;;;;;;;1.61;100.00;103825.09;5030721;28;20401;-90
2023/01/24 11:19:02;;;;;;;15.20;8.05;;;;;;;1.73;100.00;103839.13;5030222;28;20022;-89
2023/01/24 11:21:30;;;;;;;15.45;8.80;;;;;;;1.75;100.00;103837.22;5029606;28;20384;-89
2023/01/24 11:24:15;;;;;;;16.90;9.07;;;;;;;1.75;100.00;103834.56;5029880;28;20029;-89
2023/01/24 11:27:04;;;;;;;15.67;8.73;;;;;;;1.88;100.00;103843.19;5029266;28;20816;-89
2023/01/24 11:29:32;;;;;;;14.70;8.50;;;;;;;1.75;100.00;103838.03;5028366;28;20348;-91
2023/01/24 11:35:29;;;;;;;15.23;8.13;;;;;;;1.68;100.00;103802.50;4913569;29;20047;-86
2023/01/24 11:38:12;;;;;;;16.63;8.95;;;;;;;1.80;100.00;103824.47;5029715;28;20033;-89
2023/01/24 11:40:53;;;;;;;15.90;8.50;;;;;;;1.74;100.00;103824.97;5031264;28;20033;-89
2023/01/24 11:43:28;;;;;;;18.37;9.33;;;;;;;1.85;100.00;103810.88;5026060;28;20292;-88
2023/01/24 11:46:02;;;;;;;17.52;8.85;;;;;;;1.85;100.00;103814.34;5030657;28;20037;-91
2023/01/24 11:48:34;;;;;;;16.08;9.07;;;;;;;1.85;100.00;103816.16;5026318;28;20428;-91
2023/01/24 11:51:42;;;;;;;17.63;9.35;;;;;;;1.98;100.00;103810.69;5030703;28;20038;-89
2023/01/24 11:54:15;;;;;;;16.33;7.85;;;;;;;1.85;100.00;103795.81;5030851;28;20053;-89
2023/01/24 11:56:43;;;;;;;15.70;9.03;;;;;;;1.93;100.00;103814.56;5046951;28;20034;-90
2023/01/24 11:59:46;;;;;;;18.30;9.93;;;;;;;1.94;100.00;103810.09;5055116;28;20303;-88
2023/01/24 12:02:15;;;;;;;11.75;7.13;;;;;;;1.93;100.00;103809.28;5045155;28;20021;-89
2023/01/24 12:04:40;;;;;;;15.50;8.70;;;;;;;1.90;100.00;103803.41;5058060;28;20105;-87
2023/01/24 12:07:14;;;;;;;16.13;8.53;;;;;;;1.96;100.00;103810.81;5051092;28;20026;-89
2023/01/24 12:09:59;;;;;;;21.05;10.40;;;;;;;2.03;100.00;103796.13;5057180;28;20028;-88
2023/01/24 12:12:43;;;;;;;19.15;9.25;;;;;;;1.95;100.00;103775.59;5043927;28;20029;-88
2023/01/24 12:15:21;;;;;;;16.27;7.87;;;;;;;2.07;100.00;103786.97;5053214;28;20021;-88
2023/01/24 12:17:55;;;;;;;16.77;8.80;;;;;;;2.07;100.00;103778.19;5033674;28;20280;-88
2023/01/24 12:20:29;;;;;;;16.85;9.48;;;;;;;2.08;100.00;103782.50;5033469;28;20030;-90
2023/01/24 12:22:57;;;;;;;16.17;8.40;;;;;;;1.99;100.00;103754.19;5035785;28;20491;-90